Time;durP1;ratioP1;P1;durP2;ratioP2;P2;SDS_P1;SDS_P2;PMS_P1;PMS_P2;Temp;Humidity;BMP_temperature;BMP_pressure;BME280_temperature;BME280_humidity;BME280_pressure;Samples;Min_cycle;Max_cycle;Signal;HPM_P1;HPM_P2
2022/07/22 00:02:06;;;;;;;;;;;;;;;;;;4972733;28;19934;-70
2022/07/22 00:04:34;;;;;;;;;;;;;;;;;;4972904;28;19992;-70
2022/07/22 00:07:01;;;;;;;;;;;;;;;;;;4972391;28;19977;-69
2022/07/22 00:09:29;;;;;;;;;;;;;;;;;;4973125;28;19930;-70
2022/07/22 00:11:56;;;;;;;;;;;;;;;;;;4972766;28;19930;-70
2022/07/22 00:14:24;;;;;;;;;;;;;;;;;;4972873;28;19945;-70
2022/07/22 00:16:51;;;;;;;;;;;;;;;;;;4972206;28;20024;-69
2022/07/22 00:19:18;;;;;;;;;;;;;;;;;;4971979;28;19934;-71
2022/07/22 00:21:46;;;;;;;;;;;;;;;;;;4959278;28;19930;-70
2022/07/22 00:24:13;;;;;;;;;;;;;;;;;;4977414;28;20408;-69
2022/07/22 00:26:40;;;;;;;;;;;;;;;;;;4977688;28;20144;-70
2022/07/22 00:29:08;;;;;;;;;;;;;;;;;;4977126;28;19941;-70
2022/07/22 00:31:35;;;;;;;;;;;;;;;;;;4975916;28;19964;-70
2022/07/22 00:34:02;;;;;;;;;;;;;;;;;;4983308;28;20321;-71
2022/07/22 00:36:30;;;;;;;;;;;;;;;;;;4967505;28;19984;-70
2022/07/22 00:38:57;;;;;;;;;;;;;;;;;;4954905;28;20325;-69
2022/07/22 00:41:25;;;;;;;;;;;;;;;;;;4975470;28;19930;-68
2022/07/22 00:43:53;;;;;;;;;;;;;;;;;;4975737;28;20016;-70
2022/07/22 00:46:20;;;;;;;;;;;;;;;;;;4960418;28;19933;-68
2022/07/22 00:48:48;;;;;;;;;;;;;;;;;;4969682;28;19930;-70
2022/07/22 00:51:15;;;;;;;;;;;;;;;;;;4970523;28;20007;-71
2022/07/22 00:53:43;;;;;;;;;;;;;;;;;;4940399;28;19934;-69
2022/07/22 00:56:10;;;;;;;;;;;;;;;;;;4985479;28;20016;-69
2022/07/22 00:58:37;;;;;;;;;;;;;;;;;;4973038;28;19934;-71
2022/07/22 01:01:05;;;;;;;;;;;;;;;;;;4981629;28;19934;-69
2022/07/22 01:03:32;;;;;;;;;;;;;;;;;;4981147;28;20232;-69
2022/07/22 01:06:00;;;;;;;;;;;;;;;;;;4974985;28;19976;-70
2022/07/22 01:08:28;;;;;;;;;;;;;;;;;;4954958;28;19930;-70
2022/07/22 01:10:56;;;;;;;;;;;;;;;;;;4984387;28;19952;-70
2022/07/22 01:13:26;;;;;;;;;;;;;;;;;;4975069;28;19961;-71
2022/07/22 01:15:54;;;;;;;;;;;;;;;;;;4973985;28;20261;-70
2022/07/22 01:18:21;;;;;;;;;;;;;;;;;;4953129;28;19969;-70
2022/07/22 01:20:48;;;;;;;;;;;;;;;;;;4973764;28;19965;-69
2022/07/22 01:23:15;;;;;;;;;;;;;;;;;;4968126;28;20023;-71
2022/07/22 01:25:43;;;;;;;;;;;;;;;;;;4975410;28;19969;-71
2022/07/22 01:28:10;;;;;;;;;;;;;;;;;;4973137;28;19933;-70
2022/07/22 01:30:37;;;;;;;;;;;;;;;;;;4972692;28;20368;-69
2022/07/22 01:33:05;;;;;;;;;;;;;;;;;;4972512;28;19929;-71
2022/07/22 01:35:32;;;;;;;;;;;;;;;;;;4973396;28;19977;-70
2022/07/22 01:38:00;;;;;;;;;;;;;;;;;;4979649;28;19930;-70
2022/07/22 01:40:27;;;;;;;;;;;;;;;;;;4970801;28;20006;-69
2022/07/22 01:42:54;;;;;;;;;;;;;;;;;;4976435;28;20394;-71
2022/07/22 01:45:21;;;;;;;;;;;;;;;;;;4984220;28;19934;-71
2022/07/22 01:47:49;;;;;;;;;;;;;;;;;;4976359;28;19955;-70
2022/07/22 01:50:16;;;;;;;;;;;;;;;;;;4975073;28;20397;-72
2022/07/22 01:52:43;;;;;;;;;;;;;;;;;;4973567;28;20554;-71
2022/07/22 01:55:12;;;;;;;;;;;;;;;;;;4967645;28;20381;-70
2022/07/22 01:57:39;;;;;;;;;;;;;;;;;;4972559;28;19934;-69
2022/07/22 02:00:16;;;;;;;;;;;;;;;;;;4984485;28;20025;-70
2022/07/22 02:02:44;;;;;;;;;;;;;;;;;;4989021;28;20425;-71
2022/07/22 02:05:12;;;;;;;;;;;;;;;;;;4976238;28;19940;-71
2022/07/22 02:07:39;;;;;;;;;;;;;;;;;;4974165;28;19993;-71
2022/07/22 02:10:06;;;;;;;;;;;;;;;;;;4960009;28;20398;-69
2022/07/22 02:12:34;;;;;;;;;;;;;;;;;;4985902;28;20308;-71
2022/07/22 02:15:03;;;;;;;;;;;;;;;;;;4960911;28;20285;-70
2022/07/22 02:17:30;;;;;;;;;;;;;;;;;;4956575;28;19929;-70
2022/07/22 02:19:58;;;;;;;;;;;;;;;;;;4975083;28;19930;-70
2022/07/22 02:22:26;;;;;;;;;;;;;;;;;;4974573;28;20347;-71
2022/07/22 02:24:53;;;;;;;;;;;;;;;;;;4971652;28;20142;-71
2022/07/22 02:27:21;;;;;;;;;;;;;;;;;;4974637;28;19930;-70
2022/07/22 02:29:48;;;;;;;;;;;;;;;;;;4971874;28;20048;-70
2022/07/22 02:32:15;;;;;;;;;;;;;;;;;;4973348;28;19933;-69
2022/07/22 02:34:42;;;;;;;;;;;;;;;;;;4974812;28;19930;-71
2022/07/22 02:37:10;;;;;;;;;;;;;;;;;;4969429;28;19937;-70
2022/07/22 02:39:37;;;;;;;;;;;;;;;;;;4972673;28;19937;-69
2022/07/22 02:42:04;;;;;;;;;;;;;;;;;;4969926;28;19937;-70
2022/07/22 02:44:32;;;;;;;;;;;;;;;;;;4973461;28;20263;-70
2022/07/22 02:46:59;;;;;;;;;;;;;;;;;;4970191;28;19929;-71
2022/07/22 02:49:31;;;;;;;;;;;;;;;;;;4969077;28;19933;-71
2022/07/22 02:51:59;;;;;;;;;;;;;;;;;;4964832;28;19930;-71
2022/07/22 02:54:26;;;;;;;;;;;;;;;;;;4973050;28;19940;-71
2022/07/22 02:56:54;;;;;;;;;;;;;;;;;;4971314;28;20480;-71
2022/07/22 02:59:22;;;;;;;;;;;;;;;;;;4983218;28;19989;-70
2022/07/22 03:01:49;;;;;;;;;;;;;;;;;;4971616;28;20224;-70
2022/07/22 03:04:16;;;;;;;;;;;;;;;;;;4966567;28;20448;-71
2022/07/22 03:06:43;;;;;;;;;;;;;;;;;;4959300;28;20148;-71
2022/07/22 03:09:15;;;;;;;;;;;;;;;;;;4972081;28;20840;-70
2022/07/22 03:11:44;;;;;;;;;;;;;;;;;;4988124;28;19930;-71
2022/07/22 03:14:12;;;;;;;;;;;;;;;;;;4975659;28;20312;-71
2022/07/22 03:16:39;;;;;;;;;;;;;;;;;;4972980;28;21273;-69
2022/07/22 03:19:06;;;;;;;;;;;;;;;;;;4972057;28;20360;-71
2022/07/22 03:21:35;;;;;;;;;;;;;;;;;;4973259;28;19929;-70
2022/07/22 03:24:02;;;;;;;;;;;;;;;;;;4969891;28;20457;-70
2022/07/22 03:26:31;;;;;;;;;;;;;;;;;;4986684;28;20397;-68
2022/07/22 03:28:58;;;;;;;;;;;;;;;;;;4973206;28;19988;-69
2022/07/22 03:31:27;;;;;;;;;;;;;;;;;;4972905;28;20350;-69
2022/07/22 03:33:54;;;;;;;;;;;;;;;;;;4973100;28;19960;-70
2022/07/22 03:36:21;;;;;;;;;;;;;;;;;;4969822;28;19989;-70
2022/07/22 03:38:51;;;;;;;;;;;;;;;;;;4969052;28;20398;-69
2022/07/22 03:41:18;;;;;;;;;;;;;;;;;;4968146;28;20107;-69
2022/07/22 03:43:46;;;;;;;;;;;;;;;;;;4960260;28;19969;-70
2022/07/22 03:46:14;;;;;;;;;;;;;;;;;;4966715;28;21213;-71
2022/07/22 03:48:41;;;;;;;;;;;;;;;;;;4966287;28;20081;-70
2022/07/22 03:51:08;;;;;;;;;;;;;;;;;;4948538;28;20017;-69
2022/07/22 03:53:36;;;;;;;;;;;;;;;;;;4967719;28;20020;-69
2022/07/22 03:56:03;;;;;;;;;;;;;;;;;;4984461;23;19988;-74
2022/07/22 03:58:31;;;;;;;;;;;;;;;;;;4972866;28;19945;-74
2022/07/22 04:00:59;;;;;;;;;;;;;;;;;;4981822;28;20032;-74
2022/07/22 04:03:27;;;;;;;;;;;;;;;;;;4968040;28;19933;-74
2022/07/22 04:06:09;;;;;;;;;;;;;;;;;;4974414;28;20424;-75
2022/07/22 04:08:48;;;;;;;;;;;;;;;;;;4969239;28;19930;-75
2022/07/22 04:11:16;;;;;;;;;;;;;;;;;;4967526;28;20028;-75
2022/07/22 04:13:43;;;;;;;;;;;;;;;;;;4977918;28;19963;-74
2022/07/22 04:16:11;;;;;;;;;;;;;;;;;;4976544;28;19930;-74
2022/07/22 04:18:45;;;;;;;;;;;;;;;;;;4964631;28;19969;-74
2022/07/22 04:21:13;;;;;;;;;;;;;;;;;;4947089;28;19944;-73
2022/07/22 04:23:53;;;;;;;;;;;;;;;;;;4966275;28;19941;-73
2022/07/22 04:26:28;;;;;;;;;;;;;;;;;;4986049;28;19941;-73
2022/07/22 04:28:55;;;;;;;;;;;;;;;;;;4959620;28;20401;-73
2022/07/22 04:31:23;;;;;;;;;;;;;;;;;;4962358;28;19935;-74
2022/07/22 04:33:56;;;;;;;;;;;;;;;;;;4987953;28;20407;-74
2022/07/22 04:36:24;;;;;;;;;;;;;;;;;;4987413;28;20464;-74
2022/07/22 04:38:52;;;;;;;;;;;;;;;;;;4964915;28;20036;-73
2022/07/22 04:41:20;;;;;;;;;;;;;;;;;;4955668;28;20052;-73
2022/07/22 04:43:48;;;;;;;;;;;;;;;;;;4965233;28;19945;-74
2022/07/22 04:46:16;;;;;;;;;;;;;;;;;;4971233;28;19930;-75
2022/07/22 04:48:44;;;;;;;;;;;;;;;;;;4980768;28;19925;-75
2022/07/22 04:51:11;;;;;;;;;;;;;;;;;;4989867;28;19930;-74
2022/07/22 04:53:39;;;;;;;;;;;;;;;;;;4984701;28;19930;-74
2022/07/22 04:56:11;;;;;;;;;;;;;;;;;;4989556;28;19936;-74
2022/07/22 04:58:39;;;;;;;;;;;;;;;;;;4977512;28;20382;-74
2022/07/22 05:01:06;;;;;;;;;;;;;;;;;;4979492;28;20003;-75
2022/07/22 05:03:34;;;;;;;;;;;;;;;;;;4955675;28;20012;-74
2022/07/22 05:06:03;;;;;;;;;;;;;;;;;;4968451;28;19958;-75
2022/07/22 05:08:35;;;;;;;;;;;;;;;;;;4993205;28;19934;-75
2022/07/22 05:11:03;;;;;;;;;;;;;;;;;;4977733;28;20035;-74
2022/07/22 05:13:30;;;;;;;;;;;;;;;;;;4969846;28;19933;-74
2022/07/22 05:15:57;;;;;;;;;;;;;;;;;;4990544;28;19937;-73
2022/07/22 05:18:25;;;;;;;;;;;;;;;;;;4976103;28;19930;-74
2022/07/22 05:20:52;;;;;;;;;;;;;;;;;;4978333;28;20294;-74
2022/07/22 05:23:19;;;;;;;;;;;;;;;;;;4980442;28;19930;-74
2022/07/22 05:25:46;;;;;;;;;;;;;;;;;;4965024;28;19948;-74
2022/07/22 05:28:14;;;;;;;;;;;;;;;;;;4986559;28;20025;-74
2022/07/22 05:30:43;;;;;;;;;;;;;;;;;;4985011;28;19938;-73
2022/07/22 05:33:11;;;;;;;;;;;;;;;;;;4988386;28;19957;-73
2022/07/22 05:36:02;;;;;;;;;;;;;;;;;;4978748;28;20016;-74
2022/07/22 05:38:35;;;;;;;;;;;;;;;;;;4973804;28;19934;-74
2022/07/22 05:41:02;;;;;;;;;;;;;;;;;;4972140;28;19930;-74
2022/07/22 05:43:30;;;;;;;;;;;;;;;;;;4998927;28;20393;-74
2022/07/22 05:45:58;;;;;;;;;;;;;;;;;;4979661;28;19941;-74
2022/07/22 05:48:25;;;;;;;;;;;;;;;;;;4975445;28;20290;-74
2022/07/22 05:50:52;;;;;;;;;;;;;;;;;;4973021;28;19933;-74
2022/07/22 05:53:20;;;;;;;;;;;;;;;;;;4980911;28;19932;-74
2022/07/22 05:55:47;;;;;;;;;;;;;;;;;;4985813;28;19940;-74
2022/07/22 05:58:15;;;;;;;;;;;;;;;;;;4976676;28;19984;-74
2022/07/22 06:00:42;;;;;;;;;;;;;;;;;;4981064;28;19948;-74
2022/07/22 06:03:10;;;;;;;;;;;;;;;;;;4993082;28;20020;-74
2022/07/22 06:05:44;;;;;;;;;;;;;;;;;;4979567;28;19984;-74
2022/07/22 06:08:12;;;;;;;;;;;;;;;;;;4958260;28;20059;-74
2022/07/22 06:10:45;;;;;;;;;;;;;;;;;;4970123;28;19941;-75
2022/07/22 06:13:13;;;;;;;;;;;;;;;;;;4991406;28;20000;-74
2022/07/22 06:15:41;;;;;;;;;;;;;;;;;;4966274;28;19985;-74
2022/07/22 06:18:09;;;;;;;;;;;;;;;;;;4987416;28;20313;-74
2022/07/22 06:20:36;;;;;;;;;;;;;;;;;;4983375;28;20419;-74
2022/07/22 06:23:04;;;;;;;;;;;;;;;;;;4993766;28;20081;-73
2022/07/22 06:25:33;;;;;;;;;;;;;;;;;;4970618;28;19926;-75
2022/07/22 06:28:21;;;;;;;;;;;;;;;;;;4992164;28;20349;-74
2022/07/22 06:30:48;;;;;;;;;;;;;;;;;;5013014;28;19976;-74
2022/07/22 06:33:17;;;;;;;;;;;;;;;;;;4977373;28;19930;-74
2022/07/22 06:35:44;;;;;;;;;;;;;;;;;;4995289;28;19961;-74
2022/07/22 06:38:12;;;;;;;;;;;;;;;;;;4982062;28;19980;-74
2022/07/22 06:41:22;;;;;;;;;;;;;;;;;;4963946;28;19941;-74
2022/07/22 06:44:16;;;;;;;;;;;;;;;;;;4957709;28;19926;-75
2022/07/22 06:47:02;;;;;;;;;;;;;;;;;;4979706;28;19927;-74
2022/07/22 06:49:29;;;;;;;;;;;;;;;;;;4979388;28;19984;-74
2022/07/22 06:51:56;;;;;;;;;;;;;;;;;;4977325;28;20009;-74
2022/07/22 06:54:24;;;;;;;;;;;;;;;;;;5007198;28;19932;-75
2022/07/22 06:56:54;;;;;;;;;;;;;;;;;;4964334;28;20016;-74
2022/07/22 06:59:26;;;;;;;;;;;;;;;;;;4984207;28;19926;-74
2022/07/22 07:01:54;;;;;;;;;;;;;;;;;;4997621;28;19929;-74
2022/07/22 07:04:21;;;;;;;;;;;;;;;;;;4974759;28;19972;-73
2022/07/22 07:06:49;;;;;;;;;;;;;;;;;;4956643;28;19933;-74
2022/07/22 07:09:33;;;;;;;;;;;;;;;;;;4963533;28;20469;-73
2022/07/22 07:12:08;;;;;;;;;;;;;;;;;;4980962;28;19956;-73
2022/07/22 07:15:07;;;;;;;;;;;;;;;;;;4975710;28;19925;-73
2022/07/22 07:17:54;;;;;;;;;;;;;;;;;;4997816;28;19930;-74
2022/07/22 07:20:21;;;;;;;;;;;;;;;;;;4963625;28;20022;-74
2022/07/22 07:22:48;;;;;;;;;;;;;;;;;;4986900;28;20313;-74
2022/07/22 07:25:15;;;;;;;;;;;;;;;;;;4977639;28;19927;-74
2022/07/22 07:27:50;;;;;;;;;;;;;;;;;;4966816;28;20625;-74
2022/07/22 07:30:19;;;;;;;;;;;;;;;;;;4956122;28;20073;-74
2022/07/22 07:32:47;;;;;;;;;;;;;;;;;;4977344;28;20008;-74
2022/07/22 07:35:14;;;;;;;;;;;;;;;;;;4972333;28;20390;-74
2022/07/22 07:37:42;;;;;;;;;;;;;;;;;;4977876;28;20020;-74
2022/07/22 07:40:09;;;;;;;;;;;;;;;;;;4978604;28;19936;-74
2022/07/22 07:42:36;;;;;;;;;;;;;;;;;;4988039;28;20428;-74
2022/07/22 07:45:10;;;;;;;;;;;;;;;;;;4967094;28;19930;-73
2022/07/22 07:47:37;;;;;;;;;;;;;;;;;;4974559;28;19930;-74
2022/07/22 07:50:04;;;;;;;;;;;;;;;;;;4971524;28;20290;-75
2022/07/22 07:52:32;;;;;;;;;;;;;;;;;;4975566;28;20697;-74
2022/07/22 07:54:59;;;;;;;;;;;;;;;;;;5008822;28;20021;-75
2022/07/22 07:57:40;;;;;;;;;;;;;;;;;;4997329;28;19941;-74
2022/07/22 08:00:10;;;;;;;;;;;;;;;;;;4982723;28;19934;-75
2022/07/22 08:02:42;;;;;;;;;;;;;;;;;;4980903;28;19969;-75
2022/07/22 08:05:13;;;;;;;;;;;;;;;;;;4975559;28;20512;-75
2022/07/22 08:07:40;;;;;;;;;;;;;;;;;;4966854;28;19930;-75
2022/07/22 08:10:10;;;;;;;;;;;;;;;;;;4977238;28;19930;-74
2022/07/22 08:13:17;;;;;;;;;;;;;;;;;;4942821;28;19926;-74
2022/07/22 08:15:58;;;;;;;;;;;;;;;;;;4967806;28;20012;-74
2022/07/22 08:18:26;;;;;;;;;;;;;;;;;;4980647;28;19930;-74
2022/07/22 08:20:53;;;;;;;;;;;;;;;;;;4978048;28;19936;-75
2022/07/22 08:23:28;;;;;;;;;;;;;;;;;;4981801;28;19980;-75
2022/07/22 08:25:56;;;;;;;;;;;;;;;;;;4967603;28;20172;-75
2022/07/22 08:28:23;;;;;;;;;;;;;;;;;;4965331;28;19989;-75
2022/07/22 08:30:51;;;;;;;;;;;;;;;;;;4968474;28;20784;-75
2022/07/22 08:33:18;;;;;;;;;;;;;;;;;;4977008;28;19941;-75
2022/07/22 08:35:45;;;;;;;;;;;;;;;;;;4975259;28;19937;-75
2022/07/22 08:38:13;;;;;;;;;;;;;;;;;;4977156;28;20342;-75
2022/07/22 08:40:40;;;;;;;;;;;;;;;;;;4979106;28;19930;-74
2022/07/22 08:43:07;;;;;;;;;;;;;;;;;;4987594;28;20296;-75
2022/07/22 08:45:35;;;;;;;;;;;;;;;;;;4985088;28;20373;-75
2022/07/22 08:48:05;;;;;;;;;;;;;;;;;;4980251;28;20064;-75
2022/07/22 08:50:55;;;;;;;;;;;;;;;;;;4971108;28;19933;-75
2022/07/22 08:53:29;;;;;;;;;;;;;;;;;;4965134;28;20279;-75
2022/07/22 08:56:01;;;;;;;;;;;;;;;;;;4992982;28;19933;-74
2022/07/22 08:58:30;;;;;;;;;;;;;;;;;;4992428;28;19937;-75
2022/07/22 09:01:01;;;;;;;;;;;;;;;;;;4979329;28;19973;-75
2022/07/22 09:03:29;;;;;;;;;;;;;;;;;;4969732;28;19930;-75
2022/07/22 09:05:59;;;;;;;;;;;;;;;;;;4988587;28;19937;-75
2022/07/22 09:08:26;;;;;;;;;;;;;;;;;;5003320;28;20424;-75
2022/07/22 09:11:01;;;;;;;;;;;;;;;;;;4990241;28;19952;-75
2022/07/22 09:14:00;;;;;;;;;;;;;;;;;;4957644;28;19929;-75
2022/07/22 09:16:34;;;;;;;;;;;;;;;;;;4981976;28;19944;-74
2022/07/22 09:19:21;;;;;;;;;;;;;;;;;;4980597;28;19961;-74
2022/07/22 09:22:09;;;;;;;;;;;;;;;;;;4987277;28;19937;-73
2022/07/22 09:25:00;;;;;;;;;;;;;;;;;;4983669;28;19949;-73
2022/07/22 09:27:40;;;;;;;;;;;;;;;;;;4975119;28;19930;-75
2022/07/22 09:30:23;;;;;;;;;;;;;;;;;;4985638;28;19933;-75
2022/07/22 09:32:56;;;;;;;;;;;;;;;;;;4964174;28;19930;-75
2022/07/22 09:35:39;;;;;;;;;;;;;;;;;;4990720;28;19930;-71
2022/07/22 09:38:12;;;;;;;;;;;;;;;;;;4968480;28;19936;-74
2022/07/22 09:40:39;;;;;;;;;;;;;;;;;;4980019;28;20281;-75
2022/07/22 09:43:11;;;;;;;;;;;;;;;;;;4992323;28;20401;-73
2022/07/22 09:45:38;;;;;;;;;;;;;;;;;;4997965;28;19937;-75
2022/07/22 09:48:06;;;;;;;;;;;;;;;;;;4988982;28;19929;-74
2022/07/22 09:50:47;;;;;;;;;;;;;;;;;;4987707;28;19933;-75
2022/07/22 09:53:30;;;;;;;;;;;;;;;;;;4976432;28;19937;-75
2022/07/22 09:56:06;;;;;;;;;;;;;;;;;;5015541;22;19937;-72
2022/07/22 09:58:35;;;;;;;;;;;;;;;;;;4987219;28;19939;-72
2022/07/22 10:01:07;;;;;;;;;;;;;;;;;;4983468;28;19953;-72
2022/07/22 10:03:36;;;;;;;;;;;;;;;;;;4983855;28;20791;-71
2022/07/22 10:06:04;;;;;;;;;;;;;;;;;;4961664;28;19976;-71
2022/07/22 10:08:33;;;;;;;;;;;;;;;;;;4989477;28;20266;-72
2022/07/22 10:11:01;;;;;;;;;;;;;;;;;;4989826;28;19969;-71
2022/07/22 10:13:28;;;;;;;;;;;;;;;;;;4983485;28;20486;-72
2022/07/22 10:15:56;;;;;;;;;;;;;;;;;;4978606;28;19929;-72
2022/07/22 10:18:25;;;;;;;;;;;;;;;;;;4994699;28;19940;-73
2022/07/22 10:20:54;;;;;;;;;;;;;;;;;;4966715;28;19930;-72
2022/07/22 10:23:21;;;;;;;;;;;;;;;;;;4990120;28;19937;-73
2022/07/22 10:25:49;;;;;;;;;;;;;;;;;;4969946;28;19932;-71
2022/07/22 10:28:16;;;;;;;;;;;;;;;;;;4977140;28;19936;-71
2022/07/22 10:30:43;;;;;;;;;;;;;;;;;;5002427;28;19934;-72
2022/07/22 10:33:11;;;;;;;;;;;;;;;;;;5003600;28;20348;-72
2022/07/22 10:35:38;;;;;;;;;;;;;;;;;;4999065;28;19956;-71
2022/07/22 10:38:06;;;;;;;;;;;;;;;;;;4973668;28;19934;-71
2022/07/22 10:40:33;;;;;;;;;;;;;;;;;;4995833;28;20029;-72
2022/07/22 10:43:00;;;;;;;;;;;;;;;;;;5006189;28;19976;-72
2022/07/22 10:45:27;;;;;;;;;;;;;;;;;;4996349;28;19930;-72
2022/07/22 10:47:55;;;;;;;;;;;;;;;;;;4998086;28;19929;-72
2022/07/22 10:50:22;;;;;;;;;;;;;;;;;;5000726;28;20013;-72
2022/07/22 10:52:49;;;;;;;;;;;;;;;;;;4998056;28;20022;-71
2022/07/22 10:55:17;;;;;;;;;;;;;;;;;;4992955;28;19930;-73
2022/07/22 10:57:44;;;;;;;;;;;;;;;;;;4996744;28;19925;-72
2022/07/22 11:00:11;;;;;;;;;;;;;;;;;;5004780;28;19934;-72
2022/07/22 11:02:38;;;;;;;;;;;;;;;;;;5003075;28;19976;-70
2022/07/22 11:05:06;;;;;;;;;;;;;;;;;;4997578;28;19938;-70
2022/07/22 11:07:34;;;;;;;;;;;;;;;;;;4987855;28;20029;-72
2022/07/22 11:10:01;;;;;;;;;;;;;;;;;;5006835;28;20043;-72
2022/07/22 11:12:28;;;;;;;;;;;;;;;;;;4994536;28;19925;-72
2022/07/22 11:14:56;;;;;;;;;;;;;;;;;;5000993;28;19933;-72
2022/07/22 11:17:25;;;;;;;;;;;;;;;;;;4996612;28;19933;-73
2022/07/22 11:19:52;;;;;;;;;;;;;;;;;;5003180;28;19929;-74
2022/07/22 11:22:19;;;;;;;;;;;;;;;;;;4998411;28;19925;-71
2022/07/22 11:24:46;;;;;;;;;;;;;;;;;;4975907;28;20016;-72
2022/07/22 11:27:14;;;;;;;;;;;;;;;;;;4998640;28;20312;-72
2022/07/22 11:29:44;;;;;;;;;;;;;;;;;;5006055;28;20120;-72
2022/07/22 11:32:11;;;;;;;;;;;;;;;;;;4997276;28;20223;-70
2022/07/22 11:34:42;;;;;;;;;;;;;;;;;;4978040;28;19971;-70
2022/07/22 11:37:09;;;;;;;;;;;;;;;;;;4988727;28;19930;-71
2022/07/22 11:39:36;;;;;;;;;;;;;;;;;;4999642;28;20035;-72
2022/07/22 11:42:06;;;;;;;;;;;;;;;;;;5000111;28;20365;-71
2022/07/22 11:44:33;;;;;;;;;;;;;;;;;;5003792;28;19953;-71
2022/07/22 11:47:00;;;;;;;;;;;;;;;;;;4984230;28;19935;-70
2022/07/22 11:49:28;;;;;;;;;;;;;;;;;;4990000;28;19953;-71
2022/07/22 11:51:55;;;;;;;;;;;;;;;;;;4990337;28;20028;-73
2022/07/22 11:54:23;;;;;;;;;;;;;;;;;;4992725;28;19988;-73
2022/07/22 11:56:50;;;;;;;;;;;;;;;;;;5005220;28;19929;-73
2022/07/22 11:59:23;;;;;;;;;;;;;;;;;;5005351;28;19944;-72
2022/07/22 12:01:50;;;;;;;;;;;;;;;;;;4986286;28;20361;-73
2022/07/22 12:04:17;;;;;;;;;;;;;;;;;;5002527;28;20393;-73
2022/07/22 12:06:44;;;;;;;;;;;;;;;;;;4999694;28;19968;-73
2022/07/22 12:09:12;;;;;;;;;;;;;;;;;;5005626;28;19929;-74
2022/07/22 12:11:39;;;;;;;;;;;;;;;;;;5005869;28;19930;-72
2022/07/22 12:14:07;;;;;;;;;;;;;;;;;;4998029;28;19945;-73
2022/07/22 12:16:40;;;;;;;;;;;;;;;;;;4996360;28;19934;-72
2022/07/22 12:19:07;;;;;;;;;;;;;;;;;;4989905;28;20462;-72
2022/07/22 12:21:34;;;;;;;;;;;;;;;;;;4987849;28;20032;-72
2022/07/22 12:24:02;;;;;;;;;;;;;;;;;;4993203;28;20300;-72
2022/07/22 12:26:29;;;;;;;;;;;;;;;;;;4986490;28;20495;-71
2022/07/22 12:28:56;;;;;;;;;;;;;;;;;;4990878;28;19968;-72
2022/07/22 12:31:24;;;;;;;;;;;;;;;;;;4991221;28;19969;-73
2022/07/22 12:33:51;;;;;;;;;;;;;;;;;;4990827;28;19988;-71
2022/07/22 12:36:19;;;;;;;;;;;;;;;;;;4987828;28;20411;-70
2022/07/22 12:38:46;;;;;;;;;;;;;;;;;;4989281;28;19936;-72
2022/07/22 12:41:13;;;;;;;;;;;;;;;;;;4974692;28;19972;-74
2022/07/22 12:43:41;;;;;;;;;;;;;;;;;;4992220;28;19929;-72
2022/07/22 12:46:08;;;;;;;;;;;;;;;;;;4989581;28;20072;-70
2022/07/22 12:48:36;;;;;;;;;;;;;;;;;;4990342;28;19934;-74
2022/07/22 12:51:03;;;;;;;;;;;;;;;;;;4990918;28;20375;-72
2022/07/22 12:53:33;;;;;;;;;;;;;;;;;;4988517;28;20028;-72
2022/07/22 12:56:02;;;;;;;;;;;;;;;;;;4985155;28;20021;-72
2022/07/22 12:58:30;;;;;;;;;;;;;;;;;;4975029;28;19965;-71
2022/07/22 13:00:57;;;;;;;;;;;;;;;;;;4984869;28;19933;-72
2022/07/22 13:03:27;;;;;;;;;;;;;;;;;;4971985;28;20401;-71
2022/07/22 13:05:55;;;;;;;;;;;;;;;;;;4991017;28;19930;-72
2022/07/22 13:08:22;;;;;;;;;;;;;;;;;;4991156;28;20444;-72
2022/07/22 13:10:49;;;;;;;;;;;;;;;;;;4989451;28;20479;-72
2022/07/22 13:13:16;;;;;;;;;;;;;;;;;;4982572;28;19934;-72
2022/07/22 13:15:44;;;;;;;;;;;;;;;;;;4989035;28;19930;-71
2022/07/22 13:18:11;;;;;;;;;;;;;;;;;;4990701;28;19941;-73
2022/07/22 13:20:39;;;;;;;;;;;;;;;;;;4987286;28;19929;-72
2022/07/22 13:23:06;;;;;;;;;;;;;;;;;;4991160;28;19933;-72
2022/07/22 13:25:33;;;;;;;;;;;;;;;;;;4993056;28;20027;-71
2022/07/22 13:28:01;;;;;;;;;;;;;;;;;;4993581;28;19936;-73
2022/07/22 13:30:28;;;;;;;;;;;;;;;;;;4988176;28;19930;-73
2022/07/22 13:32:55;;;;;;;;;;;;;;;;;;4989723;28;20290;-74
2022/07/22 13:35:23;;;;;;;;;;;;;;;;;;4977192;28;19977;-72
2022/07/22 13:37:50;;;;;;;;;;;;;;;;;;4989064;28;19934;-71
2022/07/22 13:40:17;;;;;;;;;;;;;;;;;;4991808;28;20718;-72
2022/07/22 13:42:44;;;;;;;;;;;;;;;;;;4993729;28;19932;-71
2022/07/22 13:45:12;;;;;;;;;;;;;;;;;;4980979;28;20394;-72
2022/07/22 13:47:39;;;;;;;;;;;;;;;;;;4974512;28;19968;-73
2022/07/22 13:50:06;;;;;;;;;;;;;;;;;;4992945;28;19934;-71
2022/07/22 13:52:34;;;;;;;;;;;;;;;;;;4976483;28;20016;-72
2022/07/22 13:55:01;;;;;;;;;;;;;;;;;;4991974;28;20047;-72
2022/07/22 13:57:28;;;;;;;;;;;;;;;;;;4992146;28;19992;-72
2022/07/22 13:59:56;;;;;;;;;;;;;;;;;;4992905;28;20021;-72
2022/07/22 14:02:23;;;;;;;;;;;;;;;;;;4992958;28;19955;-71
2022/07/22 14:04:51;;;;;;;;;;;;;;;;;;4971738;28;19934;-71
2022/07/22 14:07:18;;;;;;;;;;;;;;;;;;4992391;28;20019;-72
2022/07/22 14:09:45;;;;;;;;;;;;;;;;;;4993770;28;19930;-72
2022/07/22 14:12:12;;;;;;;;;;;;;;;;;;4983785;28;19930;-72
2022/07/22 14:14:40;;;;;;;;;;;;;;;;;;4989938;28;19934;-73
2022/07/22 14:17:07;;;;;;;;;;;;;;;;;;4990076;28;19940;-72
2022/07/22 14:19:36;;;;;;;;;;;;;;;;;;4975153;28;19969;-72
2022/07/22 14:22:04;;;;;;;;;;;;;;;;;;4991646;28;20015;-72
2022/07/22 14:24:31;;;;;;;;;;;;;;;;;;4967406;28;20028;-72
2022/07/22 14:26:59;;;;;;;;;;;;;;;;;;4994974;28;20437;-71
2022/07/22 14:29:28;;;;;;;;;;;;;;;;;;4993262;28;20377;-73
2022/07/22 14:31:55;;;;;;;;;;;;;;;;;;5003057;28;19929;-73
2022/07/22 14:34:22;;;;;;;;;;;;;;;;;;5007232;28;20080;-72
2022/07/22 14:36:50;;;;;;;;;;;;;;;;;;4969832;28;20454;-73
2022/07/22 14:39:17;;;;;;;;;;;;;;;;;;5006131;28;19975;-73
2022/07/22 14:41:46;;;;;;;;;;;;;;;;;;5005174;28;20395;-73
2022/07/22 14:44:13;;;;;;;;;;;;;;;;;;4989155;28;19929;-71
2022/07/22 14:46:41;;;;;;;;;;;;;;;;;;5007211;28;20190;-73
2022/07/22 14:49:08;;;;;;;;;;;;;;;;;;4961468;28;19940;-72
2022/07/22 14:51:41;;;;;;;;;;;;;;;;;;5007411;28;19960;-72
2022/07/22 14:54:11;;;;;;;;;;;;;;;;;;5007565;28;20380;-73
2022/07/22 14:56:38;;;;;;;;;;;;;;;;;;5007687;28;20370;-72
2022/07/22 14:59:06;;;;;;;;;;;;;;;;;;4966355;28;20032;-73
2022/07/22 15:01:33;;;;;;;;;;;;;;;;;;5006813;28;19926;-73
2022/07/22 15:04:00;;;;;;;;;;;;;;;;;;5002781;28;19937;-71
2022/07/22 15:06:28;;;;;;;;;;;;;;;;;;5001387;28;20434;-74
2022/07/22 15:08:56;;;;;;;;;;;;;;;;;;5004548;28;19932;-73
2022/07/22 15:11:23;;;;;;;;;;;;;;;;;;5000968;28;19980;-72
2022/07/22 15:13:50;;;;;;;;;;;;;;;;;;5006368;28;19930;-72
2022/07/22 15:16:18;;;;;;;;;;;;;;;;;;4982380;28;20048;-72
2022/07/22 15:18:45;;;;;;;;;;;;;;;;;;4995083;28;19940;-71
2022/07/22 15:21:12;;;;;;;;;;;;;;;;;;4998034;28;20393;-73
2022/07/22 15:23:39;;;;;;;;;;;;;;;;;;5005710;28;19932;-71
2022/07/22 15:26:07;;;;;;;;;;;;;;;;;;4997812;28;20373;-71
2022/07/22 15:28:34;;;;;;;;;;;;;;;;;;5005285;28;20423;-72
2022/07/22 15:31:02;;;;;;;;;;;;;;;;;;5002954;28;20155;-73
2022/07/22 15:33:29;;;;;;;;;;;;;;;;;;5000568;28;19925;-72
2022/07/22 15:36:03;;;;;;;;;;;;;;;;;;5000536;28;19930;-72
2022/07/22 15:38:32;;;;;;;;;;;;;;;;;;5004107;28;20024;-70
2022/07/22 15:40:59;;;;;;;;;;;;;;;;;;4978499;28;19930;-73
2022/07/22 15:43:27;;;;;;;;;;;;;;;;;;4965420;28;20025;-72
2022/07/22 15:45:54;;;;;;;;;;;;;;;;;;4998717;28;19936;-73
2022/07/22 15:48:22;;;;;;;;;;;;;;;;;;5005167;28;20695;-73
2022/07/22 15:50:49;;;;;;;;;;;;;;;;;;4984668;28;19926;-72
2022/07/22 15:53:16;;;;;;;;;;;;;;;;;;5003733;28;19951;-71
2022/07/22 15:55:43;;;;;;;;;;;;;;;;;;5064614;23;19969;-72
2022/07/22 16:00:56;;;;;;;;;;;;;;;;;;4973797;28;19930;-70
2022/07/22 16:03:25;;;;;;;;;;;;;;;;;;4958880;28;19926;-74
2022/07/22 16:05:53;;;;;;;;;;;;;;;;;;4975501;28;19965;-71
2022/07/22 16:08:20;;;;;;;;;;;;;;;;;;4951204;28;19936;-73
2022/07/22 16:10:48;;;;;;;;;;;;;;;;;;4984663;28;20020;-75
2022/07/22 16:13:15;;;;;;;;;;;;;;;;;;4966027;28;19930;-75
2022/07/22 16:15:42;;;;;;;;;;;;;;;;;;4976018;28;20028;-70
2022/07/22 16:18:11;;;;;;;;;;;;;;;;;;4971705;28;20028;-72
2022/07/22 16:20:39;;;;;;;;;;;;;;;;;;4959381;28;20133;-74
2022/07/22 16:23:06;;;;;;;;;;;;;;;;;;4955778;28;19973;-72
2022/07/22 16:25:33;;;;;;;;;;;;;;;;;;4972525;28;20039;-74
2022/07/22 16:28:01;;;;;;;;;;;;;;;;;;4977369;28;19925;-72
2022/07/22 16:30:29;;;;;;;;;;;;;;;;;;4968395;28;19934;-75
2022/07/22 16:32:56;;;;;;;;;;;;;;;;;;4980477;28;19925;-70
2022/07/22 16:35:24;;;;;;;;;;;;;;;;;;4978191;28;19941;-73
2022/07/22 16:37:52;;;;;;;;;;;;;;;;;;4963897;28;19988;-69
2022/07/22 16:40:22;;;;;;;;;;;;;;;;;;4973560;28;20428;-71
2022/07/22 16:42:49;;;;;;;;;;;;;;;;;;4964528;28;19930;-75
2022/07/22 16:45:16;;;;;;;;;;;;;;;;;;4968088;28;19984;-68
2022/07/22 16:47:43;;;;;;;;;;;;;;;;;;4974287;28;19933;-72
2022/07/22 16:50:11;;;;;;;;;;;;;;;;;;4978770;28;20044;-71
2022/07/22 16:52:38;;;;;;;;;;;;;;;;;;4973737;28;19977;-73
2022/07/22 16:55:06;;;;;;;;;;;;;;;;;;4975711;28;19926;-71
2022/07/22 16:57:33;;;;;;;;;;;;;;;;;;4970172;28;19930;-67
2022/07/22 17:00:00;;;;;;;;;;;;;;;;;;4971563;28;19930;-75
2022/07/22 17:02:28;;;;;;;;;;;;;;;;;;4971854;28;19965;-72